createdAt,value
2023-04-15T00:01:10.102Z,52.22
2023-04-15T00:03:36.930Z,51.99
2023-04-15T00:06:04.142Z,51.89
2023-04-15T00:08:30.990Z,52.11
2023-04-15T00:11:02.556Z,51.74
2023-04-15T00:13:36.268Z,52.10
2023-04-15T00:16:02.861Z,52.20
2023-04-15T00:18:32.316Z,52.12
2023-04-15T00:20:59.318Z,52.21
2023-04-15T00:23:26.621Z,51.88
2023-04-15T00:25:53.093Z,52.19
2023-04-15T00:28:19.788Z,52.60
2023-04-15T00:30:49.792Z,52.35
2023-04-15T00:33:18.976Z,52.70
2023-04-15T00:35:45.716Z,52.37
2023-04-15T00:38:13.147Z,52.89
2023-04-15T00:40:39.814Z,52.71
2023-04-15T00:43:07.119Z,52.91
2023-04-15T00:45:34.138Z,53.11
2023-04-15T00:48:00.665Z,53.41
2023-04-15T00:50:27.207Z,52.98
2023-04-15T00:52:53.974Z,53.67
2023-04-15T00:55:21.020Z,53.73
2023-04-15T00:57:47.569Z,53.68
2023-04-15T01:00:14.303Z,53.73
2023-04-15T01:02:41.401Z,53.89
2023-04-15T01:05:08.517Z,54.34
2023-04-15T01:07:35.035Z,54.62
2023-04-15T01:10:03.255Z,54.23
2023-04-15T01:12:32.384Z,54.71
2023-04-15T01:15:00.016Z,54.88
2023-04-15T01:17:29.522Z,55.08
2023-04-15T01:19:59.934Z,55.45
2023-04-15T01:22:27.870Z,55.20
2023-04-15T01:25:18.769Z,55.49
2023-04-15T01:27:45.515Z,56.08
2023-04-15T01:30:12.172Z,55.97
2023-04-15T01:32:38.759Z,56.37
2023-04-15T01:35:05.740Z,56.27
2023-04-15T01:37:32.968Z,56.62
2023-04-15T01:39:59.833Z,57.38
2023-04-15T01:42:26.429Z,57.34
2023-04-15T01:44:53.662Z,57.52
2023-04-15T01:47:20.167Z,57.44
2023-04-15T01:49:46.640Z,57.49
2023-04-15T01:52:16.188Z,57.69
2023-04-15T01:54:42.748Z,57.42
2023-04-15T01:57:09.918Z,57.09
2023-04-15T01:59:37.064Z,57.58
2023-04-15T02:02:03.669Z,57.69
2023-04-15T02:04:30.274Z,57.51
2023-04-15T02:06:56.833Z,57.96
2023-04-15T02:09:23.321Z,58.05
2023-04-15T02:11:53.642Z,58.36
2023-04-15T02:14:22.474Z,58.66
2023-04-15T02:16:48.997Z,58.94
2023-04-15T02:19:15.833Z,59.05
2023-04-15T02:21:42.285Z,59.01
2023-04-15T02:24:09.042Z,59.54
2023-04-15T02:26:35.515Z,59.63
2023-04-15T02:29:02.015Z,60.20
2023-04-15T02:31:28.570Z,59.96
2023-04-15T02:34:00.652Z,60.54
2023-04-15T02:36:27.169Z,60.86
2023-04-15T02:38:53.514Z,61.20
2023-04-15T02:41:22.750Z,61.50
2023-04-15T02:43:49.215Z,61.62
2023-04-15T02:46:15.893Z,62.05
2023-04-15T02:48:42.362Z,62.53
2023-04-15T02:51:16.744Z,62.76
2023-04-15T02:53:43.190Z,62.86
2023-04-15T02:56:09.766Z,63.13
2023-04-15T02:58:36.664Z,63.66
2023-04-15T03:01:03.353Z,64.52
2023-04-15T03:03:31.328Z,64.14
2023-04-15T03:05:57.780Z,64.85
2023-04-15T03:08:24.347Z,65.17
2023-04-15T03:10:52.523Z,65.38
2023-04-15T03:13:19.434Z,65.40
2023-04-15T03:15:48.881Z,65.75
2023-04-15T03:18:17.040Z,65.86
2023-04-15T03:20:43.534Z,66.34
2023-04-15T03:23:10.039Z,66.45
2023-04-15T03:25:37.402Z,67.16
2023-04-15T03:28:04.179Z,67.39
2023-04-15T03:30:30.622Z,67.21
2023-04-15T03:32:57.155Z,67.61
2023-04-15T03:35:23.581Z,67.97
2023-04-15T03:37:50.015Z,68.19
2023-04-15T03:40:17.010Z,68.57
2023-04-15T03:42:46.047Z,68.45
2023-04-15T03:45:12.541Z,68.95
2023-04-15T03:47:38.980Z,69.08
2023-04-15T03:50:06.021Z,69.23
2023-04-15T03:52:32.617Z,69.40
2023-04-15T03:54:59.124Z,69.16
2023-04-15T03:57:25.517Z,69.92
2023-04-15T03:59:51.946Z,70.02
2023-04-15T04:02:18.578Z,70.14
2023-04-15T04:04:45.169Z,70.41
2023-04-15T04:07:17.852Z,70.64
2023-04-15T04:09:46.161Z,71.06
2023-04-15T04:12:13.695Z,71.49
2023-04-15T04:14:40.294Z,71.34
2023-04-15T04:17:06.841Z,72.02
2023-04-15T04:19:33.679Z,72.41
2023-04-15T04:22:00.397Z,72.55
2023-04-15T04:24:26.810Z,72.75
2023-04-15T04:26:57.259Z,73.10
2023-04-15T04:29:24.169Z,72.99
2023-04-15T04:31:50.970Z,73.67
2023-04-15T04:34:17.451Z,73.66
2023-04-15T04:36:44.414Z,74.09
2023-04-15T04:39:11.085Z,74.50
2023-04-15T04:41:37.625Z,74.49
2023-04-15T04:44:04.400Z,74.63
2023-04-15T04:46:30.915Z,74.92
2023-04-15T04:48:57.316Z,74.96
2023-04-15T04:51:23.703Z,74.81
2023-04-15T04:53:53.083Z,74.79
2023-04-15T04:56:19.576Z,75.16
2023-04-15T04:58:46.827Z,75.22
2023-04-15T05:01:13.633Z,75.36
2023-04-15T05:03:41.864Z,75.91
2023-04-15T05:06:08.896Z,75.76
2023-04-15T05:08:35.399Z,76.25
2023-04-15T05:11:03.288Z,76.32
2023-04-15T05:13:30.256Z,76.05
2023-04-15T05:15:59.536Z,76.20
2023-04-15T05:18:26.133Z,75.92
2023-04-15T05:20:52.673Z,76.55
2023-04-15T05:23:19.250Z,76.89
2023-04-15T05:25:45.948Z,77.10
2023-04-15T05:28:12.585Z,76.98
2023-04-15T05:30:39.393Z,77.36
2023-04-15T05:33:05.992Z,77.39
2023-04-15T05:35:32.583Z,77.60
2023-04-15T05:37:58.948Z,77.68
2023-04-15T05:40:25.407Z,78.33
2023-04-15T05:42:51.802Z,78.27
2023-04-15T05:45:18.840Z,77.88
2023-04-15T05:47:45.434Z,78.03
2023-04-15T05:50:11.977Z,77.70
2023-04-15T05:52:38.436Z,77.95
2023-04-15T05:55:06.157Z,78.27
2023-04-15T05:57:32.670Z,78.92
2023-04-15T05:59:59.116Z,79.38
2023-04-15T06:02:26.603Z,79.08
2023-04-15T06:04:55.508Z,78.80
2023-04-15T06:07:22.009Z,78.45
2023-04-15T06:09:48.657Z,77.64
2023-04-15T06:12:15.739Z,76.61
2023-04-15T06:14:42.271Z,76.29
2023-04-15T06:17:09.187Z,74.98
2023-04-15T06:19:36.687Z,74.09
2023-04-15T06:22:03.651Z,73.38
2023-04-15T06:24:30.502Z,72.64
2023-04-15T06:26:57.578Z,71.71
2023-04-15T06:29:24.020Z,69.91
2023-04-15T06:31:51.405Z,69.06
2023-04-15T06:34:17.950Z,67.74
2023-04-15T06:36:44.341Z,66.61
2023-04-15T06:39:11.093Z,65.18
2023-04-15T06:41:39.356Z,63.79
2023-04-15T06:44:05.953Z,62.19
2023-04-15T06:46:32.828Z,60.31
2023-04-15T06:49:02.137Z,58.91
2023-04-15T06:51:28.736Z,57.29
2023-04-15T06:53:55.327Z,55.80
2023-04-15T06:56:21.970Z,54.57
2023-04-15T06:58:48.365Z,53.04
2023-04-15T07:01:14.810Z,51.38
2023-04-15T07:03:42.016Z,49.60
2023-04-15T07:06:09.581Z,47.51
2023-04-15T07:08:36.161Z,47.05
2023-04-15T07:11:02.717Z,46.06
2023-04-15T07:13:32.041Z,44.95
2023-04-15T07:15:58.868Z,43.86
2023-04-15T07:18:25.624Z,42.42
2023-04-15T07:20:52.143Z,41.14
2023-04-15T07:23:18.650Z,40.12
2023-04-15T07:25:45.302Z,39.85
2023-04-15T07:28:12.114Z,40.13
2023-04-15T07:30:38.906Z,39.95
2023-04-15T07:33:05.689Z,39.53
2023-04-15T07:35:32.149Z,39.08
2023-04-15T07:37:58.778Z,38.45
2023-04-15T07:40:25.278Z,37.77
2023-04-15T07:42:52.400Z,37.04
2023-04-15T07:45:21.395Z,37.14
2023-04-15T07:47:47.814Z,36.23
2023-04-15T07:50:14.696Z,35.71
2023-04-15T07:52:41.319Z,35.32
2023-04-15T07:55:08.692Z,34.83
2023-04-15T07:57:36.260Z,33.93
2023-04-15T08:00:05.781Z,34.11
2023-04-15T08:02:32.660Z,33.92
2023-04-15T08:04:59.829Z,33.53
2023-04-15T08:07:26.405Z,33.44
2023-04-15T08:09:52.879Z,33.43
2023-04-15T08:12:19.588Z,33.00
2023-04-15T08:14:46.718Z,33.12
2023-04-15T08:17:13.424Z,33.19
2023-04-15T08:19:40.841Z,32.98
2023-04-15T08:22:17.951Z,32.22
2023-04-15T08:24:45.081Z,32.07
2023-04-15T08:27:11.453Z,31.95
2023-04-15T08:29:37.827Z,31.71
2023-04-15T08:32:04.613Z,31.52
2023-04-15T08:34:31.194Z,30.72
2023-04-15T08:36:57.687Z,30.21
2023-04-15T08:39:24.144Z,30.32
2023-04-15T08:42:02.796Z,30.50
2023-04-15T08:44:33.864Z,30.33
2023-04-15T08:47:04.385Z,29.98
2023-04-15T08:49:32.493Z,29.23
2023-04-15T08:52:00.289Z,29.18
2023-04-15T08:54:27.370Z,29.22
2023-04-15T08:56:54.563Z,28.66
2023-04-15T08:59:24.446Z,28.98
2023-04-15T09:01:51.816Z,28.88
2023-04-15T09:04:18.406Z,29.04
2023-04-15T09:06:45.283Z,28.96
2023-04-15T09:09:14.516Z,29.04
2023-04-15T09:11:42.072Z,29.31
2023-04-15T09:14:09.543Z,29.86
2023-04-15T09:16:58.695Z,30.01
2023-04-15T09:19:25.733Z,30.38
2023-04-15T09:21:58.678Z,30.85
2023-04-15T09:24:27.105Z,31.10
2023-04-15T09:26:55.499Z,31.68
2023-04-15T09:29:24.793Z,31.92
2023-04-15T09:31:51.496Z,32.50
2023-04-15T09:34:17.955Z,32.52
2023-04-15T09:36:50.943Z,32.10
2023-04-15T09:39:17.907Z,32.61
2023-04-15T09:41:45.177Z,32.71
2023-04-15T09:44:25.615Z,32.89
2023-04-15T09:46:52.017Z,33.19
2023-04-15T09:49:19.486Z,33.50
2023-04-15T09:51:57.613Z,33.84
2023-04-15T09:54:36.184Z,33.59
2023-04-15T09:57:13.088Z,33.58
2023-04-15T09:59:39.706Z,33.39
2023-04-15T10:02:07.485Z,33.48
2023-04-15T10:04:41.563Z,33.31
2023-04-15T10:07:12.288Z,33.49
2023-04-15T10:09:39.751Z,33.97
2023-04-15T10:12:06.534Z,33.89
2023-04-15T10:14:35.522Z,34.33
2023-04-15T10:17:04.367Z,34.54
2023-04-15T10:19:33.403Z,34.80
2023-04-15T10:22:00.454Z,34.95
2023-04-15T10:24:27.828Z,34.77
2023-04-15T10:26:55.374Z,34.75
2023-04-15T10:29:23.330Z,34.71
2023-04-15T10:31:50.930Z,34.76
2023-04-15T10:34:18.871Z,34.54
2023-04-15T10:36:48.001Z,34.63
2023-04-15T10:39:34.583Z,35.10
2023-04-15T10:42:15.634Z,35.08
2023-04-15T10:44:44.438Z,35.30
2023-04-15T10:47:15.579Z,35.36
2023-04-15T10:49:47.656Z,35.41
2023-04-15T10:52:16.203Z,35.15
2023-04-15T10:54:42.754Z,35.19
2023-04-15T10:57:15.511Z,35.41
2023-04-15T11:00:00.298Z,35.93
2023-04-15T11:02:42.147Z,35.80
2023-04-15T11:05:09.451Z,35.42
2023-04-15T11:07:56.055Z,36.11
2023-04-15T11:10:25.571Z,36.47
2023-04-15T11:12:54.391Z,36.38
2023-04-15T11:15:42.993Z,36.97
2023-04-15T11:18:17.352Z,37.38
2023-04-15T11:20:45.246Z,37.50
2023-04-15T11:23:15.145Z,37.54
2023-04-15T11:25:43.066Z,37.32
2023-04-15T11:28:11.374Z,38.12
2023-04-15T11:30:39.401Z,37.54
2023-04-15T11:33:10.101Z,37.60
2023-04-15T11:35:36.764Z,37.96
2023-04-15T11:38:05.367Z,37.97
2023-04-15T11:40:35.817Z,38.07
2023-04-15T11:43:12.604Z,37.96
2023-04-15T11:45:49.719Z,37.70
2023-04-15T11:48:16.253Z,37.90
2023-04-15T11:50:42.715Z,37.34
2023-04-15T11:53:11.916Z,36.73
2023-04-15T11:55:43.218Z,36.98
2023-04-15T11:58:17.068Z,37.37
2023-04-15T12:00:55.046Z,37.67
2023-04-15T12:03:25.931Z,37.10
2023-04-15T12:06:19.153Z,37.06
2023-04-15T12:08:52.699Z,37.82
2023-04-15T12:11:21.398Z,37.94
2023-04-15T12:13:49.745Z,37.38
2023-04-15T12:16:19.856Z,37.45
2023-04-15T12:18:47.653Z,37.15
2023-04-15T12:21:14.548Z,36.96
2023-04-15T12:23:50.605Z,36.67
2023-04-15T12:26:18.041Z,36.27
2023-04-15T12:28:47.634Z,36.86
2023-04-15T12:31:14.589Z,37.52
2023-04-15T12:33:41.125Z,38.04
2023-04-15T12:36:08.263Z,37.96
2023-04-15T12:38:34.704Z,38.17
2023-04-15T12:41:01.324Z,38.90
2023-04-15T12:43:30.540Z,39.36
2023-04-15T12:45:57.007Z,39.58
2023-04-15T12:48:23.678Z,40.00
2023-04-15T12:50:50.159Z,40.36
2023-04-15T12:53:16.763Z,39.85
2023-04-15T12:55:43.208Z,39.72
2023-04-15T12:58:11.710Z,39.47
2023-04-15T13:00:38.550Z,39.14
2023-04-15T13:03:07.069Z,39.49
2023-04-15T13:05:34.167Z,39.11
2023-04-15T13:08:00.872Z,39.30
2023-04-15T13:10:28.468Z,39.39
2023-04-15T13:12:56.641Z,39.30
2023-04-15T13:15:23.444Z,39.83
2023-04-15T13:17:50.547Z,39.43
2023-04-15T13:20:17.514Z,40.18
2023-04-15T13:22:44.024Z,39.50
2023-04-15T13:25:11.733Z,39.41
2023-04-15T13:27:38.575Z,39.69
2023-04-15T13:30:06.356Z,40.18
2023-04-15T13:32:33.009Z,40.17
2023-04-15T13:34:59.648Z,39.82
2023-04-15T13:37:27.983Z,40.30
2023-04-15T13:39:55.866Z,40.46
2023-04-15T13:42:23.325Z,40.82
2023-04-15T13:44:51.457Z,40.68
2023-04-15T13:47:19.640Z,41.84
2023-04-15T13:49:46.373Z,42.32
2023-04-15T13:52:12.815Z,42.61
2023-04-15T13:54:39.435Z,42.86
2023-04-15T13:57:06.727Z,43.49
2023-04-15T13:59:34.968Z,43.58
2023-04-15T14:02:02.197Z,44.03
2023-04-15T14:04:28.985Z,44.56
2023-04-15T14:06:56.289Z,45.10
2023-04-15T14:09:26.265Z,45.70
2023-04-15T14:11:53.140Z,46.16
2023-04-15T14:14:19.576Z,46.34
2023-04-15T14:16:46.399Z,46.28
2023-04-15T14:19:13.021Z,46.05
2023-04-15T14:21:39.605Z,46.06
2023-04-15T14:24:06.264Z,45.95
2023-04-15T14:26:32.939Z,45.68
2023-04-15T14:28:59.587Z,46.46
2023-04-15T14:31:28.431Z,46.82
2023-04-15T14:33:54.942Z,47.63
2023-04-15T14:36:21.367Z,47.54
2023-04-15T14:38:48.705Z,47.56
2023-04-15T14:41:16.081Z,47.61
2023-04-15T14:43:42.565Z,48.35
2023-04-15T14:46:09.148Z,48.16
2023-04-15T14:48:36.013Z,48.17
2023-04-15T14:51:02.661Z,47.96
2023-04-15T14:53:29.194Z,47.91
2023-04-15T14:55:55.561Z,48.71
2023-04-15T14:58:22.451Z,49.34
2023-04-15T15:00:48.965Z,49.27
2023-04-15T15:03:15.791Z,49.54
2023-04-15T15:05:44.778Z,49.63
2023-04-15T15:08:11.696Z,49.94
2023-04-15T15:10:49.510Z,49.77
2023-04-15T15:13:17.454Z,49.76
2023-04-15T15:15:44.025Z,49.63
2023-04-15T15:18:11.392Z,49.49
2023-04-15T15:20:38.071Z,49.29
2023-04-15T15:23:04.656Z,49.60
2023-04-15T15:25:31.173Z,49.98
2023-04-15T15:27:57.912Z,50.42
2023-04-15T15:30:24.369Z,50.70
2023-04-15T15:32:51.496Z,50.94
2023-04-15T15:35:18.047Z,51.13
2023-04-15T15:37:45.629Z,51.03
2023-04-15T15:40:12.582Z,50.80
2023-04-15T15:42:41.231Z,50.68
2023-04-15T15:45:08.030Z,50.77
2023-04-15T15:47:34.714Z,51.10
2023-04-15T15:50:02.597Z,50.96
2023-04-15T15:52:30.247Z,51.14
2023-04-15T15:54:56.649Z,51.28
2023-04-15T15:57:23.087Z,52.00
2023-04-15T15:59:50.064Z,52.48
2023-04-15T16:02:18.201Z,52.82
2023-04-15T16:04:44.717Z,52.81
2023-04-15T16:07:12.048Z,53.36
2023-04-15T16:09:40.946Z,52.96
2023-04-15T16:12:07.494Z,53.23
2023-04-15T16:14:33.970Z,53.34
2023-04-15T16:17:00.526Z,53.85
2023-04-15T16:19:27.049Z,53.88
2023-04-15T16:21:54.001Z,54.24
2023-04-15T16:24:20.586Z,54.42
2023-04-15T16:26:47.184Z,54.14
2023-04-15T16:29:13.611Z,53.99
2023-04-15T16:31:41.414Z,53.86
2023-04-15T16:34:07.859Z,54.14
2023-04-15T16:36:40.290Z,53.98
2023-04-15T16:39:07.070Z,54.44
2023-04-15T16:41:34.809Z,55.01
2023-04-15T16:44:01.986Z,54.95
2023-04-15T16:46:29.634Z,55.16
2023-04-15T16:48:56.230Z,55.21
2023-04-15T16:51:22.715Z,55.28
2023-04-15T16:53:49.363Z,55.07
2023-04-15T16:56:15.918Z,55.32
2023-04-15T16:58:42.376Z,55.71
2023-04-15T17:01:08.905Z,56.09
2023-04-15T17:03:38.643Z,56.27
2023-04-15T17:06:05.538Z,56.21
2023-04-15T17:08:34.964Z,56.94
2023-04-15T17:11:01.552Z,57.03
2023-04-15T17:13:28.056Z,57.08
2023-04-15T17:15:56.738Z,57.53
2023-04-15T17:18:23.291Z,57.63
2023-04-15T17:20:49.867Z,57.07
2023-04-15T17:23:18.898Z,57.05
2023-04-15T17:25:45.518Z,57.07
2023-04-15T17:28:12.013Z,56.80
2023-04-15T17:30:38.512Z,57.04
2023-04-15T17:33:53.463Z,56.80
2023-04-15T17:35:52.937Z,57.55
2023-04-15T17:38:19.385Z,58.40
2023-04-15T17:40:45.795Z,58.42
2023-04-15T17:43:12.342Z,58.48
2023-04-15T17:45:38.817Z,58.89
2023-04-15T17:48:05.384Z,58.96
2023-04-15T17:50:31.993Z,58.64
2023-04-15T17:52:58.585Z,58.98
2023-04-15T17:55:25.243Z,59.47
2023-04-15T17:57:51.788Z,59.72
2023-04-15T18:00:18.336Z,60.07
2023-04-15T18:02:45.221Z,59.76
2023-04-15T18:05:12.233Z,60.19
2023-04-15T18:07:38.741Z,60.10
2023-04-15T18:10:05.832Z,60.50
2023-04-15T18:12:32.349Z,60.73
2023-04-15T18:14:58.906Z,60.42
2023-04-15T18:17:28.394Z,60.72
2023-04-15T18:19:54.849Z,60.80
2023-04-15T18:22:21.494Z,61.05
2023-04-15T18:24:49.946Z,61.68
2023-04-15T18:27:17.074Z,62.37
2023-04-15T18:29:43.933Z,62.07
2023-04-15T18:32:10.479Z,62.15
2023-04-15T18:34:37.047Z,62.06
2023-04-15T18:37:04.897Z,62.55
2023-04-15T18:39:31.559Z,62.25
2023-04-15T18:41:57.992Z,62.35
2023-04-15T18:44:24.389Z,61.97
2023-04-15T18:46:50.901Z,62.12
2023-04-15T18:49:17.418Z,62.14
2023-04-15T18:51:43.861Z,62.41
2023-04-15T18:54:10.484Z,62.53
2023-04-15T18:56:36.923Z,62.77
2023-04-15T18:59:09.927Z,62.62
2023-04-15T19:01:51.500Z,63.69
2023-04-15T19:04:18.293Z,63.37
2023-04-15T19:06:44.820Z,63.54
2023-04-15T19:09:11.523Z,63.33
2023-04-15T19:11:38.464Z,63.83
2023-04-15T19:14:05.208Z,63.88
2023-04-15T19:16:31.766Z,63.82
2023-04-15T19:18:58.334Z,63.57
2023-04-15T19:21:24.951Z,64.24
2023-04-15T19:23:51.542Z,64.72
2023-04-15T19:26:19.796Z,64.85
2023-04-15T19:28:46.213Z,64.73
2023-04-15T19:31:12.635Z,65.61
2023-04-15T19:33:39.166Z,65.53
2023-04-15T19:36:06.705Z,65.14
2023-04-15T19:38:37.671Z,65.15
2023-04-15T19:41:04.290Z,65.40
2023-04-15T19:43:32.470Z,65.53
2023-04-15T19:45:59.226Z,65.35
2023-04-15T19:48:25.830Z,65.51
2023-04-15T19:50:52.234Z,66.22
2023-04-15T19:53:18.751Z,66.32
2023-04-15T19:55:45.723Z,66.44
2023-04-15T19:58:12.185Z,66.89
2023-04-15T20:00:38.755Z,66.71
2023-04-15T20:03:05.646Z,66.71
2023-04-15T20:05:32.389Z,66.34
2023-04-15T20:08:00.279Z,66.14
2023-04-15T20:10:27.121Z,66.86
2023-04-15T20:12:53.632Z,67.02
2023-04-15T20:15:23.414Z,67.25
2023-04-15T20:17:50.630Z,67.30
2023-04-15T20:20:17.325Z,67.52
2023-04-15T20:22:47.424Z,67.85
2023-04-15T20:25:14.168Z,68.73
2023-04-15T20:27:40.584Z,69.22
2023-04-15T20:30:07.647Z,69.82
2023-04-15T20:32:35.903Z,69.46
2023-04-15T20:35:04.398Z,69.54
2023-04-15T20:37:34.627Z,69.77
2023-04-15T20:40:02.441Z,69.98
2023-04-15T20:42:34.416Z,69.88
2023-04-15T20:45:01.446Z,70.35
2023-04-15T20:47:28.113Z,69.88
2023-04-15T20:49:54.600Z,70.51
2023-04-15T20:52:21.155Z,70.28
2023-04-15T20:54:47.646Z,70.79
2023-04-15T20:57:14.112Z,71.13
2023-04-15T20:59:40.767Z,71.13
2023-04-15T21:02:07.352Z,70.79
2023-04-15T21:04:33.953Z,70.94
2023-04-15T21:07:02.982Z,71.18
2023-04-15T21:09:29.636Z,71.77
2023-04-15T21:14:25.618Z,72.29
2023-04-15T21:16:52.132Z,71.86
2023-04-15T21:19:18.505Z,72.56
2023-04-15T21:21:44.992Z,73.12
2023-04-15T21:24:13.956Z,74.02
2023-04-15T21:26:40.703Z,73.97
2023-04-15T21:29:09.584Z,74.53
2023-04-15T21:31:37.832Z,75.87
2023-04-15T21:34:04.419Z,75.99
2023-04-15T21:36:31.663Z,75.80
2023-04-15T21:38:58.247Z,76.37
2023-04-15T21:41:27.736Z,76.66
2023-04-15T21:43:56.755Z,77.08
2023-04-15T21:46:25.636Z,77.48
2023-04-15T21:48:59.369Z,77.72
2023-04-15T21:51:26.673Z,77.23
2023-04-15T21:53:53.081Z,77.55
2023-04-15T21:56:21.554Z,77.21
2023-04-15T21:58:52.042Z,78.18
2023-04-15T22:01:18.592Z,78.01
2023-04-15T22:03:45.302Z,78.31
2023-04-15T22:06:15.783Z,78.61
2023-04-15T22:08:55.193Z,78.64
2023-04-15T22:11:26.847Z,79.68
2023-04-15T22:13:56.943Z,79.99
2023-04-15T22:16:25.508Z,80.61
2023-04-15T22:18:52.028Z,80.13
2023-04-15T22:21:18.527Z,80.94
2023-04-15T22:23:47.166Z,81.05
2023-04-15T22:26:13.520Z,81.67
2023-04-15T22:28:40.062Z,82.20
2023-04-15T22:31:09.327Z,83.23
2023-04-15T22:33:35.994Z,83.19
2023-04-15T22:36:02.433Z,83.74
2023-04-15T22:38:28.963Z,83.66
2023-04-15T22:40:55.361Z,84.59
2023-04-15T22:43:22.067Z,84.85
2023-04-15T22:45:50.571Z,85.84
2023-04-15T22:48:18.149Z,86.05
2023-04-15T22:50:44.575Z,86.62
2023-04-15T22:53:11.176Z,86.81
2023-04-15T22:55:37.631Z,87.29
2023-04-15T22:58:04.163Z,87.18
2023-04-15T23:00:30.691Z,88.01
2023-04-15T23:02:57.175Z,88.23
2023-04-15T23:05:23.944Z,88.94
2023-04-15T23:07:50.682Z,88.97
2023-04-15T23:10:17.162Z,88.76
2023-04-15T23:12:45.988Z,89.20
2023-04-15T23:15:12.514Z,89.28
2023-04-15T23:17:39.001Z,90.05
2023-04-15T23:20:07.218Z,89.76
2023-04-15T23:22:37.489Z,90.30
2023-04-15T23:25:05.107Z,90.33
2023-04-15T23:27:31.587Z,91.01
2023-04-15T23:29:58.004Z,90.74
2023-04-15T23:32:24.676Z,91.70
2023-04-15T23:34:52.223Z,92.82
2023-04-15T23:37:18.915Z,92.46
2023-04-15T23:39:45.410Z,92.60
2023-04-15T23:42:14.629Z,92.29
2023-04-15T23:44:44.133Z,92.23
2023-04-15T23:47:10.628Z,92.35
2023-04-15T23:49:37.038Z,92.67
2023-04-15T23:52:06.298Z,92.61
2023-04-15T23:54:32.790Z,93.02
2023-04-15T23:56:59.135Z,92.50
2023-04-15T23:59:25.559Z,93.07
